createdAt,value
2022-09-12T00:02:03.285Z,3.40
2022-09-12T00:04:30.520Z,3.47
2022-09-12T00:06:57.395Z,3.67
2022-09-12T00:09:24.285Z,3.05
2022-09-12T00:11:51.427Z,2.97
2022-09-12T00:14:18.973Z,3.35
2022-09-12T00:16:45.879Z,2.62
2022-09-12T00:19:13.105Z,2.62
2022-09-12T00:21:40.405Z,2.58
2022-09-12T00:24:07.567Z,3.20
2022-09-12T00:26:35.119Z,3.17
2022-09-12T00:29:01.969Z,3.00
2022-09-12T00:31:28.932Z,2.97
2022-09-12T00:33:57.916Z,3.85
2022-09-12T00:36:25.662Z,3.25
2022-09-12T00:38:55.285Z,3.50
2022-09-12T00:41:32.251Z,3.72
2022-09-12T00:44:21.573Z,3.55
2022-09-12T00:47:01.284Z,3.62
2022-09-12T00:49:33.509Z,3.70
2022-09-12T00:52:05.675Z,3.53
2022-09-12T00:54:36.446Z,3.53
2022-09-12T00:57:06.703Z,3.28
2022-09-12T00:59:51.130Z,3.72
2022-09-12T01:02:18.604Z,3.65
2022-09-12T01:04:45.652Z,3.35
2022-09-12T01:07:12.953Z,3.75
2022-09-12T01:09:40.924Z,3.33
2022-09-12T01:12:08.614Z,3.17
2022-09-12T01:14:35.629Z,3.20
2022-09-12T01:17:02.751Z,3.45
2022-09-12T01:20:04.876Z,3.80
2022-09-12T01:22:49.980Z,3.08
2022-09-12T01:25:55.374Z,3.90
2022-09-12T01:29:05.510Z,3.33
2022-09-12T01:31:57.851Z,3.43
2022-09-12T01:34:51.240Z,4.35
2022-09-12T01:37:22.457Z,3.47
2022-09-12T01:40:05.025Z,2.85
2022-09-12T01:42:44.384Z,3.78
2022-09-12T01:45:30.736Z,3.47
2022-09-12T01:48:04.809Z,3.45
2022-09-12T01:50:34.499Z,3.50
2022-09-12T01:53:14.631Z,3.70
2022-09-12T01:55:44.923Z,3.62
2022-09-12T01:58:21.541Z,3.90
2022-09-12T02:00:56.833Z,4.10
2022-09-12T02:03:27.901Z,3.22
2022-09-12T02:06:00.113Z,3.58
2022-09-12T02:08:31.101Z,3.55
2022-09-12T02:11:07.667Z,4.18
2022-09-12T02:13:36.162Z,4.07
2022-09-12T02:16:11.982Z,3.95
2022-09-12T02:18:40.612Z,4.18
2022-09-12T02:21:07.954Z,4.53
2022-09-12T02:23:37.995Z,4.32
2022-09-12T02:26:11.113Z,4.78
2022-09-12T02:28:41.817Z,4.80
2022-09-12T02:31:25.366Z,4.90
2022-09-12T02:34:15.788Z,4.80
2022-09-12T02:39:12.961Z,5.30
2022-09-12T02:41:39.805Z,4.40
2022-09-12T02:44:06.946Z,4.75
2022-09-12T02:46:46.907Z,4.55
2022-09-12T02:49:14.359Z,5.43
2022-09-12T02:51:41.332Z,5.30
2022-09-12T02:54:09.239Z,5.60
2022-09-12T02:56:36.615Z,4.82
2022-09-12T02:59:06.467Z,4.57
2022-09-12T03:01:41.039Z,5.05
2022-09-12T03:04:25.097Z,5.43
2022-09-12T03:07:02.016Z,4.78
2022-09-12T03:09:34.329Z,5.07
2022-09-12T03:12:37.215Z,5.03
2022-09-12T03:15:23.890Z,5.40
2022-09-12T03:18:19.761Z,6.53
2022-09-12T03:20:52.582Z,4.80
2022-09-12T03:23:33.524Z,5.12
2022-09-12T03:26:26.070Z,4.93
2022-09-12T03:28:54.637Z,5.60
2022-09-12T03:31:25.133Z,5.35
2022-09-12T03:33:54.820Z,5.85
2022-09-12T03:36:27.126Z,5.80
2022-09-12T03:38:57.104Z,5.43
2022-09-12T03:41:24.241Z,6.12
2022-09-12T03:43:53.950Z,4.70
2022-09-12T03:46:23.564Z,5.23
2022-09-12T03:48:53.889Z,5.18
2022-09-12T03:51:23.593Z,5.40
2022-09-12T03:53:50.735Z,6.07
2022-09-12T03:56:19.430Z,5.35
2022-09-12T03:58:46.836Z,5.10
2022-09-12T04:01:20.942Z,5.65
2022-09-12T04:03:52.259Z,4.90
2022-09-12T04:06:23.477Z,4.80
2022-09-12T04:08:54.594Z,5.78
2022-09-12T04:11:24.628Z,5.55
2022-09-12T04:13:54.562Z,5.95
2022-09-12T04:16:24.374Z,5.60
2022-09-12T04:18:54.428Z,5.47
2022-09-12T04:21:24.571Z,5.83
2022-09-12T04:23:54.417Z,5.25
2022-09-12T04:26:21.379Z,6.18
2022-09-12T04:28:50.791Z,5.72
2022-09-12T04:31:21.459Z,6.25
2022-09-12T04:33:53.750Z,6.28
2022-09-12T04:36:24.781Z,7.12
2022-09-12T04:38:55.383Z,5.25
2022-09-12T04:41:25.345Z,6.35
2022-09-12T04:43:54.018Z,6.47
2022-09-12T04:46:24.589Z,6.53
2022-09-12T04:48:56.506Z,6.03
2022-09-12T04:51:32.186Z,5.97
2022-09-12T04:54:11.877Z,5.75
2022-09-12T04:56:40.242Z,5.65
2022-09-12T04:59:08.656Z,6.30
2022-09-12T05:01:35.950Z,7.12
2022-09-12T05:04:03.743Z,5.72
2022-09-12T05:06:34.450Z,6.00
2022-09-12T05:09:02.297Z,6.40
2022-09-12T05:11:53.042Z,8.95
2022-09-12T05:14:18.927Z,6.63
2022-09-12T05:16:49.187Z,6.10
2022-09-12T05:19:17.235Z,6.57
2022-09-12T05:21:44.470Z,6.40
2022-09-12T05:24:11.634Z,6.07
2022-09-12T05:26:38.663Z,7.00
2022-09-12T05:29:07.130Z,6.22
2022-09-12T05:31:34.826Z,9.25
2022-09-12T05:34:04.626Z,7.10
2022-09-12T05:36:31.954Z,6.40
2022-09-12T05:39:01.958Z,6.90
2022-09-12T05:41:30.906Z,6.22
2022-09-12T05:44:02.903Z,6.62
2022-09-12T05:46:31.403Z,5.97
2022-09-12T05:49:03.435Z,6.60
2022-09-12T05:51:33.543Z,6.95
2022-09-12T05:54:01.786Z,6.37
2022-09-12T05:56:30.799Z,6.70
2022-09-12T05:59:03.734Z,6.43
2022-09-12T06:01:33.309Z,6.97
2022-09-12T06:04:01.980Z,7.00
2022-09-12T06:06:30.297Z,5.95
2022-09-12T06:08:59.490Z,6.37
2022-09-12T06:11:28.633Z,5.95
2022-09-12T06:13:56.963Z,5.45
2022-09-12T06:16:26.128Z,5.50
2022-09-12T06:19:02.320Z,5.18
2022-09-12T06:21:31.255Z,5.32
2022-09-12T06:23:58.936Z,5.40
2022-09-12T06:26:26.213Z,4.65
2022-09-12T06:28:54.425Z,4.90
2022-09-12T06:31:33.583Z,5.37
2022-09-12T06:34:02.803Z,4.32
2022-09-12T06:36:36.487Z,5.12
2022-09-12T06:39:10.126Z,4.55
2022-09-12T06:41:40.466Z,4.07
2022-09-12T06:44:19.365Z,4.55
2022-09-12T06:46:47.236Z,4.45
2022-09-12T06:49:14.213Z,4.28
2022-09-12T06:51:42.116Z,4.12
2022-09-12T06:54:10.711Z,4.35
2022-09-12T06:56:37.734Z,4.47
2022-09-12T06:59:04.598Z,4.00
2022-09-12T07:01:32.216Z,4.05
2022-09-12T07:04:00.893Z,4.12
2022-09-12T07:06:32.040Z,4.72
2022-09-12T07:09:00.200Z,4.45
2022-09-12T07:11:32.512Z,4.05
2022-09-12T07:14:01.037Z,4.60
2022-09-12T07:16:28.553Z,3.87
2022-09-12T07:18:57.583Z,3.60
2022-09-12T07:21:25.186Z,3.90
2022-09-12T07:23:52.749Z,4.15
2022-09-12T07:26:20.458Z,3.95
2022-09-12T07:28:54.705Z,4.70
2022-09-12T07:31:23.998Z,5.07
2022-09-12T07:33:54.771Z,4.40
2022-09-12T07:36:25.815Z,4.32
2022-09-12T07:38:57.609Z,4.05
2022-09-12T07:41:26.923Z,3.70
2022-09-12T07:43:56.062Z,5.30
2022-09-12T07:46:27.257Z,3.62
2022-09-12T07:48:56.443Z,3.85
2022-09-12T07:51:24.606Z,3.35
2022-09-12T07:53:51.879Z,3.65
2022-09-12T07:56:32.727Z,3.40
2022-09-12T07:59:01.630Z,3.80
2022-09-12T08:01:28.767Z,3.58
2022-09-12T08:03:58.629Z,3.37
2022-09-12T08:06:27.070Z,3.25
2022-09-12T08:08:57.937Z,4.35
2022-09-12T08:11:27.975Z,3.50
2022-09-12T08:13:57.096Z,3.65
2022-09-12T08:16:26.512Z,3.00
2022-09-12T08:18:53.773Z,3.62
2022-09-12T08:21:23.363Z,3.03
2022-09-12T08:23:58.993Z,2.55
2022-09-12T08:26:26.454Z,2.40
2022-09-12T08:28:56.373Z,2.35
2022-09-12T08:31:25.389Z,2.30
2022-09-12T08:33:56.420Z,3.42
2022-09-12T08:36:27.713Z,2.60
2022-09-12T08:38:59.572Z,2.45
2022-09-12T08:41:41.631Z,2.05
2022-09-12T08:44:40.171Z,2.15
2022-09-12T08:47:28.081Z,2.20
2022-09-12T08:50:10.474Z,2.28
2022-09-12T08:52:54.597Z,2.30
2022-09-12T08:55:42.808Z,4.07
2022-09-12T08:58:17.070Z,2.42
2022-09-12T09:01:14.241Z,2.40
2022-09-12T09:03:53.235Z,2.30
2022-09-12T09:06:40.781Z,2.17
2022-09-12T09:12:15.838Z,2.92
2022-09-12T09:15:12.605Z,2.17
2022-09-12T09:17:45.543Z,2.28
2022-09-12T09:20:33.255Z,2.50
2022-09-12T09:23:32.674Z,1.70
2022-09-12T09:26:09.618Z,2.12
2022-09-12T09:28:39.869Z,2.17
2022-09-12T09:31:15.750Z,2.05
2022-09-12T09:33:43.727Z,2.25
2022-09-12T09:36:20.808Z,2.28
2022-09-12T09:39:07.576Z,2.28
2022-09-12T09:41:49.339Z,1.92
2022-09-12T09:44:17.081Z,4.68
2022-09-12T09:46:43.904Z,3.15
2022-09-12T09:49:13.286Z,2.45
2022-09-12T09:51:41.748Z,3.17
2022-09-12T09:54:19.247Z,1.83
2022-09-12T09:56:46.303Z,2.12
2022-09-12T09:59:21.769Z,2.30
2022-09-12T10:01:57.467Z,2.20
2022-09-12T10:04:26.863Z,9.10
2022-09-12T10:06:58.648Z,2.75
2022-09-12T10:09:38.635Z,1.95
2022-09-12T10:12:28.579Z,2.55
2022-09-12T10:15:03.684Z,2.40
2022-09-12T10:17:34.451Z,2.72
2022-09-12T10:20:20.468Z,2.60
2022-09-12T10:22:49.063Z,2.50
2022-09-12T10:25:16.955Z,2.83
2022-09-12T10:27:43.777Z,2.67
2022-09-12T10:30:19.701Z,2.15
2022-09-12T10:32:52.332Z,3.12
2022-09-12T10:35:22.094Z,2.03
2022-09-12T10:38:02.352Z,3.62
2022-09-12T10:40:38.376Z,7.50
2022-09-12T10:43:31.138Z,4.05
2022-09-12T10:45:59.293Z,2.75
2022-09-12T10:48:34.090Z,5.68
2022-09-12T10:51:01.392Z,3.85
2022-09-12T10:53:42.067Z,3.10
2022-09-12T10:57:00.340Z,6.00
2022-09-12T11:00:17.310Z,3.00
2022-09-12T11:03:06.921Z,2.67
2022-09-12T11:05:40.164Z,7.80
2022-09-12T11:08:36.944Z,3.70
2022-09-12T11:11:26.315Z,2.97
2022-09-12T11:13:58.445Z,3.33
2022-09-12T11:16:42.675Z,3.20
2022-09-12T11:19:35.948Z,3.00
2022-09-12T11:22:31.747Z,4.03
2022-09-12T11:25:20.736Z,3.30
2022-09-12T11:28:13.263Z,3.17
2022-09-12T11:30:49.533Z,3.28
2022-09-12T11:33:27.017Z,3.62
2022-09-12T11:35:57.231Z,2.87
2022-09-12T11:38:43.041Z,3.78
2022-09-12T11:41:17.260Z,3.80
2022-09-12T11:44:08.490Z,6.70
2022-09-12T11:46:39.762Z,5.47
2022-09-12T11:49:11.788Z,7.62
2022-09-12T11:52:11.771Z,3.50
2022-09-12T11:57:20.975Z,4.15
2022-09-12T11:59:58.614Z,4.18
2022-09-12T12:02:30.655Z,3.92
2022-09-12T12:05:15.681Z,4.50
2022-09-12T12:07:46.186Z,3.10
2022-09-12T12:10:30.955Z,4.18
2022-09-12T12:12:59.104Z,3.28
2022-09-12T12:15:26.611Z,3.22
2022-09-12T12:18:01.227Z,3.87
2022-09-12T12:20:28.723Z,3.00
2022-09-12T12:22:55.773Z,2.92
2022-09-12T12:25:29.661Z,3.60
2022-09-12T12:28:01.300Z,3.50
2022-09-12T12:30:31.223Z,3.40
2022-09-12T12:35:42.868Z,4.10
2022-09-12T12:38:31.739Z,3.90
2022-09-12T12:41:16.737Z,3.47
2022-09-12T12:43:45.458Z,3.05
2022-09-12T12:46:16.977Z,3.20
2022-09-12T12:48:52.767Z,5.82
2022-09-12T12:51:42.933Z,2.97
2022-09-12T12:54:29.731Z,2.60
2022-09-12T12:57:19.627Z,2.92
2022-09-12T12:59:55.049Z,2.55
2022-09-12T13:02:35.533Z,2.47
2022-09-12T13:05:15.551Z,2.53
2022-09-12T13:07:43.986Z,3.00
2022-09-12T13:10:31.381Z,3.42
2022-09-12T13:13:01.340Z,3.83
2022-09-12T13:18:02.021Z,3.22
2022-09-12T13:20:31.895Z,2.55
2022-09-12T13:22:58.954Z,2.58
2022-09-12T13:25:32.835Z,4.07
2022-09-12T13:28:07.280Z,5.20
2022-09-12T13:30:36.972Z,2.83
2022-09-12T13:33:11.539Z,2.60
2022-09-12T13:36:11.185Z,2.42
2022-09-12T13:39:03.364Z,2.08
2022-09-12T13:41:43.547Z,2.60
2022-09-12T13:44:13.400Z,2.47
2022-09-12T13:46:40.511Z,2.53
2022-09-12T13:49:29.977Z,2.47
2022-09-12T13:52:03.292Z,2.60
2022-09-12T13:54:30.762Z,2.22
2022-09-12T13:56:57.946Z,2.00
2022-09-12T13:59:24.763Z,2.12
2022-09-12T14:01:51.831Z,2.10
2022-09-12T14:04:41.632Z,1.92
2022-09-12T14:07:22.204Z,1.80
2022-09-12T14:09:57.120Z,2.40
2022-09-12T14:12:26.173Z,2.83
2022-09-12T14:14:53.514Z,2.30
2022-09-12T14:17:32.770Z,1.92
2022-09-12T14:20:06.855Z,2.83
2022-09-12T14:22:34.768Z,2.70
2022-09-12T14:25:02.312Z,2.20
2022-09-12T14:27:32.283Z,2.10
2022-09-12T14:30:09.078Z,2.10
2022-09-12T14:32:36.248Z,3.05
2022-09-12T14:35:11.811Z,4.15
2022-09-12T14:37:39.292Z,1.75
2022-09-12T14:40:19.648Z,3.97
2022-09-12T14:42:50.880Z,2.90
2022-09-12T14:45:24.915Z,1.30
2022-09-12T14:47:53.079Z,1.42
2022-09-12T14:50:23.359Z,4.22
2022-09-12T14:53:30.749Z,1.80
2022-09-12T14:56:06.785Z,1.75
2022-09-12T14:58:33.671Z,1.70
2022-09-12T15:01:07.099Z,1.70
2022-09-12T15:03:37.079Z,1.27
2022-09-12T15:06:07.891Z,2.00
2022-09-12T15:08:34.752Z,1.98
2022-09-12T15:11:01.560Z,1.60
2022-09-12T15:13:30.109Z,1.37
2022-09-12T15:15:58.527Z,1.40
2022-09-12T15:18:29.190Z,1.37
2022-09-12T15:21:03.349Z,1.50
2022-09-12T15:23:49.453Z,1.60
2022-09-12T15:26:30.488Z,2.83
2022-09-12T15:28:57.959Z,1.45
2022-09-12T15:31:32.193Z,1.23
2022-09-12T15:34:01.074Z,1.50
2022-09-12T15:36:31.386Z,1.42
2022-09-12T15:38:58.289Z,1.75
2022-09-12T15:41:36.973Z,1.33
2022-09-12T15:44:10.640Z,2.12
2022-09-12T15:46:37.486Z,1.35
2022-09-12T15:49:04.596Z,3.10
2022-09-12T15:51:31.364Z,1.80
2022-09-12T15:53:58.168Z,3.47
2022-09-12T15:56:25.250Z,3.30
2022-09-12T15:58:59.066Z,2.40
2022-09-12T16:01:27.022Z,1.33
2022-09-12T16:03:54.324Z,2.42
2022-09-12T16:06:24.096Z,1.77
2022-09-12T16:08:53.789Z,1.45
2022-09-12T16:11:25.946Z,1.58
2022-09-12T16:13:56.822Z,2.75
2022-09-12T16:16:23.988Z,1.90
2022-09-12T16:18:52.091Z,1.95
2022-09-12T16:21:18.927Z,1.33
2022-09-12T16:23:46.884Z,1.73
2022-09-12T16:26:14.339Z,1.50
2022-09-12T16:28:41.261Z,1.75
2022-09-12T16:31:11.158Z,1.37
2022-09-12T16:33:38.713Z,1.40
2022-09-12T16:36:10.702Z,1.17
2022-09-12T16:38:41.911Z,1.45
2022-09-12T16:41:08.768Z,1.52
2022-09-12T16:43:35.894Z,1.50
2022-09-12T16:46:14.222Z,1.60
2022-09-12T16:48:49.524Z,1.45
2022-09-12T16:53:56.503Z,1.62
2022-09-12T16:56:26.626Z,1.20
2022-09-12T16:58:56.619Z,1.33
2022-09-12T17:03:56.412Z,1.17
2022-09-12T17:06:27.242Z,1.30
2022-09-12T17:09:00.725Z,1.50
2022-09-12T17:11:33.132Z,1.25
2022-09-12T17:14:05.027Z,3.92
2022-09-12T17:16:34.487Z,1.30
2022-09-12T17:19:01.300Z,1.50
2022-09-12T17:21:28.185Z,1.67
2022-09-12T17:23:55.335Z,1.60
2022-09-12T17:26:22.534Z,1.50
2022-09-12T17:28:49.569Z,1.48
2022-09-12T17:31:18.418Z,1.70
2022-09-12T17:33:45.308Z,1.62
2022-09-12T17:36:15.260Z,1.50
2022-09-12T17:38:44.281Z,1.30
2022-09-12T17:41:17.538Z,1.45
2022-09-12T17:43:52.745Z,1.50
2022-09-12T17:46:22.155Z,1.92
2022-09-12T17:48:56.995Z,1.33
2022-09-12T17:51:28.915Z,5.37
2022-09-12T17:54:01.475Z,1.42
2022-09-12T17:56:30.046Z,1.62
2022-09-12T17:58:58.115Z,1.50
2022-09-12T18:01:44.141Z,1.45
2022-09-12T18:04:11.358Z,1.00
2022-09-12T18:06:38.513Z,1.37
2022-09-12T18:09:07.823Z,1.87
2022-09-12T18:11:35.596Z,1.20
2022-09-12T18:14:02.729Z,1.40
2022-09-12T18:16:31.351Z,1.48
2022-09-12T18:19:01.187Z,1.87
2022-09-12T18:21:28.955Z,1.47
2022-09-12T18:23:59.243Z,1.77
2022-09-12T18:26:27.960Z,1.48
2022-09-12T18:28:58.176Z,1.35
2022-09-12T18:31:29.756Z,1.40
2022-09-12T18:33:59.627Z,1.05
2022-09-12T18:36:27.150Z,1.47
2022-09-12T18:38:53.994Z,1.70
2022-09-12T18:41:22.537Z,1.48
2022-09-12T18:43:53.882Z,1.45
2022-09-12T18:46:22.896Z,1.42
2022-09-12T18:48:52.247Z,1.70
2022-09-12T18:51:25.683Z,1.48
2022-09-12T18:53:58.041Z,1.48
2022-09-12T18:56:27.686Z,1.40
2022-09-12T18:58:56.707Z,2.15
2022-09-12T19:01:31.390Z,1.58
2022-09-12T19:03:59.105Z,1.62
2022-09-12T19:06:27.871Z,1.40
2022-09-12T19:08:58.693Z,2.10
2022-09-12T19:11:27.150Z,1.40
2022-09-12T19:13:57.050Z,1.58
2022-09-12T19:16:28.447Z,2.92
2022-09-12T19:18:59.903Z,2.65
2022-09-12T19:21:28.714Z,2.10
2022-09-12T19:23:58.169Z,2.08
2022-09-12T19:26:25.325Z,1.48
2022-09-12T19:28:55.639Z,1.67
2022-09-12T19:31:25.925Z,1.70
2022-09-12T19:34:01.031Z,1.70
2022-09-12T19:36:44.400Z,1.50
2022-09-12T19:39:11.973Z,1.70
2022-09-12T19:41:39.223Z,1.17
2022-09-12T19:44:06.006Z,8.23
2022-09-12T19:46:33.023Z,7.00
2022-09-12T19:49:00.126Z,1.98
2022-09-12T19:51:26.896Z,1.25
2022-09-12T19:53:53.851Z,1.55
2022-09-12T19:56:22.559Z,1.30
2022-09-12T19:58:55.773Z,2.55
2022-09-12T20:01:28.494Z,1.75
2022-09-12T20:03:58.987Z,2.20
2022-09-12T20:06:26.532Z,2.05
2022-09-12T20:08:56.197Z,2.40
2022-09-12T20:11:26.057Z,2.75
2022-09-12T20:13:55.675Z,2.03
2022-09-12T20:16:29.074Z,6.43
2022-09-12T20:19:01.975Z,9.25
2022-09-12T20:21:35.724Z,11.18
2022-09-12T20:24:13.282Z,6.78
2022-09-12T20:26:40.418Z,7.05
2022-09-12T20:29:08.419Z,20.67
2022-09-12T20:31:36.985Z,6.50
2022-09-12T20:34:04.518Z,4.00
2022-09-12T20:36:31.903Z,8.77
2022-09-12T20:39:00.138Z,3.97
2022-09-12T20:41:28.986Z,4.68
2022-09-12T20:43:56.871Z,4.57
2022-09-12T20:46:27.702Z,3.28
2022-09-12T20:48:58.454Z,4.72
2022-09-12T20:51:30.192Z,3.05
2022-09-12T20:53:58.593Z,3.87
2022-09-12T20:56:27.112Z,3.87
2022-09-12T20:58:57.290Z,2.90
2022-09-12T21:01:28.366Z,2.78
2022-09-12T21:03:59.724Z,3.35
2022-09-12T21:06:26.528Z,2.85
2022-09-12T21:08:54.604Z,2.75
2022-09-12T21:11:24.680Z,2.87
2022-09-12T21:13:51.971Z,2.62
2022-09-12T21:16:22.631Z,2.95
2022-09-12T21:18:57.699Z,2.85
2022-09-12T21:21:25.275Z,3.22
2022-09-12T21:23:59.614Z,4.55
2022-09-12T21:26:26.753Z,3.12
2022-09-12T21:28:53.856Z,3.30
2022-09-12T21:31:23.063Z,3.05
2022-09-12T21:33:52.983Z,2.97
2022-09-12T21:36:20.041Z,2.85
2022-09-12T21:38:46.819Z,3.30
2022-09-12T21:41:14.986Z,2.70
2022-09-12T21:43:42.319Z,3.15
2022-09-12T21:46:09.910Z,2.67
2022-09-12T21:48:37.306Z,2.75
2022-09-12T21:51:04.468Z,2.95
2022-09-12T21:53:31.872Z,2.58
2022-09-12T21:56:07.165Z,3.10
2022-09-12T21:58:34.851Z,2.83
2022-09-12T22:01:01.892Z,2.55
2022-09-12T22:03:29.378Z,2.45
2022-09-12T22:06:00.454Z,2.50
2022-09-12T22:08:27.900Z,2.15
2022-09-12T22:10:59.783Z,2.67
2022-09-12T22:13:26.615Z,2.70
2022-09-12T22:15:53.436Z,2.80
2022-09-12T22:18:20.510Z,2.53
2022-09-12T22:20:47.285Z,2.47
2022-09-12T22:23:32.727Z,2.60
2022-09-12T22:26:01.394Z,2.47
2022-09-12T22:28:29.702Z,2.65
2022-09-12T22:30:56.787Z,2.78
2022-09-12T22:33:23.864Z,2.72
2022-09-12T22:35:50.662Z,2.62
2022-09-12T22:38:17.416Z,2.75
2022-09-12T22:40:44.451Z,2.95
2022-09-12T22:43:11.742Z,2.47
2022-09-12T22:45:41.092Z,2.75
2022-09-12T22:48:09.302Z,2.33
2022-09-12T22:50:36.343Z,2.72
2022-09-12T22:53:03.152Z,2.20
2022-09-12T22:55:30.284Z,2.55
2022-09-12T22:57:57.076Z,2.62
2022-09-12T23:00:23.899Z,2.42
2022-09-12T23:02:50.908Z,2.60
2022-09-12T23:05:17.700Z,2.37
2022-09-12T23:07:44.475Z,2.33
2022-09-12T23:10:11.846Z,2.30
2022-09-12T23:12:38.622Z,2.53
2022-09-12T23:15:05.805Z,2.33
2022-09-12T23:17:35.035Z,2.70
2022-09-12T23:20:02.522Z,2.40
2022-09-12T23:22:29.380Z,3.35
2022-09-12T23:24:56.449Z,2.90
2022-09-12T23:27:27.004Z,2.67
2022-09-12T23:29:53.864Z,2.53
2022-09-12T23:32:21.163Z,2.25
2022-09-12T23:34:48.354Z,2.45
2022-09-12T23:37:15.656Z,2.60
2022-09-12T23:39:42.806Z,2.60
2022-09-12T23:42:09.655Z,2.35
2022-09-12T23:44:36.443Z,2.92
2022-09-12T23:47:03.523Z,2.78
2022-09-12T23:49:30.352Z,2.83
2022-09-12T23:51:57.191Z,3.00
2022-09-12T23:54:25.059Z,2.58
2022-09-12T23:56:51.983Z,2.67
2022-09-12T23:59:18.768Z,3.17
